Ana Sayfa
METAR-TAF:

METAR-TAF

Havaalanları :

Minocqua / Woodruff, Wisconsin, Amerika Birleşik Devletleri

Enlem: 45-56N, Boylam: 089-44W, yükseklik: 496 m

Güncel hava durumu gözlemi

Rapor saat 10:15 UTC de 20 dakika önce yapıldı.
Rüzgar güney/güneybatıdan 8 kt ve 15 kt'a kadar ani rüzgarlar
Sıcaklık -6°C
Nem 86%
Basınç 1012 hPa
Görüş mesafesi: 16.1 km
1600 ft yükseklikte çok bulutlu

METAR: KARV 221015Z AUTO 21008G15KT 10SM OVC016 M06/M08 A2988 RMK AO2 T10571080

Saat: 04:35 (10:35 UTC)


TAF: eksik

4.000'den fazla havaalanı için hava durumu gözlemleri ve tahminleri (METAR ve TAF raporları).

Kullanılabilir istasyonlar harita üzerinde sarı ve kırmızı noktalarla gösterilir.

İstasyonun adını görmek için fareyi noktanın üzerinde gezdirin.

Sonrasında hava gözlem ve tahminlerini görmek için tıklayın.

Haritayı değiştirmek için: yaklaştırmak için siyah artı işaretli yeşil düğmeye ve uzaklaştırmak için de eksi işaretli düğmeye hızla tıklayın; bitişik haritalar için yeşil okları kullanın.


METAR-TAF: